createdAt,value
2017-06-24T00:02:19.905Z,20.70
2017-06-24T00:04:48.973Z,21.20
2017-06-24T00:07:17.221Z,21.20
2017-06-24T00:09:45.461Z,20.00
2017-06-24T00:15:45.072Z,21.20
2017-06-24T00:18:14.135Z,21.10
2017-06-24T00:20:42.369Z,21.10
2017-06-24T00:23:10.633Z,21.20
2017-06-24T00:31:41.485Z,20.80
2017-06-24T00:37:10.221Z,21.00
2017-06-24T00:39:38.478Z,20.80
2017-06-24T00:42:07.494Z,19.80
2017-06-24T00:44:35.782Z,19.80
2017-06-24T00:47:04.019Z,20.50
2017-06-24T00:49:32.335Z,20.30
2017-06-24T00:52:00.608Z,19.70
2017-06-24T00:54:28.863Z,19.60
2017-06-24T00:57:00.143Z,20.20
2017-06-24T00:59:28.436Z,20.20
2017-06-24T01:01:56.695Z,20.50
2017-06-24T01:04:24.956Z,20.40
2017-06-24T01:10:00.317Z,20.30
2017-06-24T01:12:28.555Z,20.00
2017-06-24T01:14:56.827Z,19.90
2017-06-24T01:17:25.867Z,20.20
2017-06-24T01:28:57.193Z,20.60
2017-06-24T01:31:25.445Z,20.60
2017-06-24T01:33:59.671Z,19.90
2017-06-24T01:36:54.461Z,20.10
2017-06-24T01:42:22.615Z,19.50
2017-06-24T01:50:59.183Z,19.90
2017-06-24T01:56:28.338Z,19.60
2017-06-24T01:58:56.578Z,19.60
2017-06-24T02:07:27.047Z,19.70
2017-06-24T02:09:55.289Z,19.70
2017-06-24T02:12:23.606Z,19.70
2017-06-24T02:14:51.873Z,19.40
2017-06-24T02:17:20.184Z,19.70
2017-06-24T02:19:49.196Z,20.40
2017-06-24T02:22:17.444Z,20.40
2017-06-24T02:24:46.502Z,20.50
2017-06-24T02:27:14.744Z,20.50
2017-06-24T02:30:00.229Z,20.50
2017-06-24T02:32:28.500Z,20.50
2017-06-24T02:35:00.245Z,20.60
2017-06-24T02:37:29.259Z,20.50
2017-06-24T02:39:57.537Z,20.50
2017-06-24T02:42:25.780Z,20.60
2017-06-24T02:44:54.837Z,20.50
2017-06-24T02:47:23.130Z,20.50
2017-06-24T02:49:51.403Z,20.60
2017-06-24T02:52:19.635Z,20.60
2017-06-24T02:54:47.930Z,20.60
2017-06-24T02:57:16.150Z,20.50
2017-06-24T02:59:45.159Z,20.60
2017-06-24T03:08:14.422Z,20.60
2017-06-24T03:10:59.230Z,20.60
2017-06-24T03:19:28.452Z,20.50
2017-06-24T03:21:56.696Z,20.50
2017-06-24T03:27:26.321Z,20.60
2017-06-24T03:32:54.967Z,20.60
2017-06-24T03:35:23.222Z,20.60
2017-06-24T03:37:51.477Z,20.60
2017-06-24T03:40:19.774Z,20.60
2017-06-24T03:45:48.623Z,20.60
2017-06-24T03:48:16.906Z,20.60
2017-06-24T03:50:45.161Z,20.60
2017-06-24T04:02:15.655Z,20.60
2017-06-24T04:04:44.668Z,20.60
2017-06-24T04:07:12.912Z,20.60
2017-06-24T04:09:42.027Z,20.60
2017-06-24T04:24:13.126Z,20.20
2017-06-24T04:29:58.754Z,19.60
2017-06-24T04:32:27.051Z,19.60
2017-06-24T04:37:56.510Z,20.10
2017-06-24T04:40:24.750Z,20.10
2017-06-24T05:01:01.971Z,19.80
2017-06-24T05:03:58.334Z,19.80
2017-06-24T05:06:27.347Z,19.50
2017-06-24T05:15:00.987Z,19.40
2017-06-24T05:20:30.495Z,19.30
2017-06-24T05:22:59.843Z,19.60
2017-06-24T05:25:28.095Z,19.50
2017-06-24T05:27:56.363Z,19.40
2017-06-24T05:30:24.694Z,19.60
2017-06-24T05:32:59.455Z,19.50
2017-06-24T05:38:28.161Z,19.60
2017-06-24T05:40:57.199Z,20.00
2017-06-24T05:43:25.477Z,20.00
2017-06-24T05:46:00.419Z,20.00
2017-06-24T05:48:28.642Z,19.70
2017-06-24T05:54:01.092Z,19.90
2017-06-24T05:59:57.924Z,20.20
2017-06-24T06:32:59.593Z,20.40
2017-06-24T06:38:29.041Z,20.70
2017-06-24T07:14:11.966Z,21.50
2017-06-24T07:22:15.530Z,22.00
2017-06-24T08:13:19.848Z,23.40
2017-06-24T08:31:21.378Z,24.40
2017-06-24T08:39:50.505Z,24.30
2017-06-24T08:48:22.721Z,24.00
2017-06-24T08:51:20.877Z,24.10
2017-06-24T08:53:49.194Z,24.30
2017-06-24T09:05:22.346Z,24.70
2017-06-24T09:07:50.597Z,24.70
2017-06-24T09:10:18.907Z,24.80
2017-06-24T09:12:53.114Z,25.10
2017-06-24T09:15:21.418Z,25.10
2017-06-24T09:24:00.358Z,25.40
2017-06-24T09:41:30.671Z,25.60
2017-06-24T09:44:00.134Z,25.50
2017-06-24T09:52:29.727Z,25.90
2017-06-24T09:54:58.745Z,25.90
2017-06-24T09:57:26.993Z,25.90
2017-06-24T10:00:21.092Z,25.80
2017-06-24T10:02:49.725Z,25.90
2017-06-24T10:05:17.954Z,25.90
2017-06-24T10:07:46.234Z,25.80
2017-06-24T10:10:14.514Z,25.60
2017-06-24T10:12:42.786Z,25.50
2017-06-24T10:15:11.087Z,25.40
2017-06-24T10:20:17.509Z,25.60
2017-06-24T10:22:45.761Z,25.60
2017-06-24T10:25:13.999Z,25.50
2017-06-24T10:27:42.309Z,25.50
2017-06-24T10:30:20.787Z,25.80
2017-06-24T10:33:01.730Z,25.90
2017-06-24T10:35:29.967Z,26.00
2017-06-24T10:37:58.230Z,26.10
2017-06-24T10:40:26.511Z,26.10
2017-06-24T10:43:00.671Z,26.20
2017-06-24T10:48:42.734Z,26.20
2017-06-24T10:51:10.978Z,26.20
2017-06-24T10:53:39.211Z,26.20
2017-06-24T10:56:16.188Z,26.20
2017-06-24T11:31:50.413Z,26.80
2017-06-24T11:34:18.654Z,26.80
2017-06-24T11:36:59.264Z,27.00
2017-06-24T11:39:27.503Z,26.90
2017-06-24T11:42:21.883Z,27.20
2017-06-24T11:44:50.123Z,27.50
2017-06-24T11:47:18.380Z,27.40
2017-06-24T12:01:48.914Z,27.90
2017-06-24T12:07:42.034Z,27.90
2017-06-24T12:10:10.288Z,27.90
2017-06-24T12:15:21.729Z,28.20
2017-06-24T12:17:49.975Z,28.00
2017-06-24T12:20:34.969Z,28.40
2017-06-24T12:26:23.001Z,28.70
2017-06-24T12:29:20.923Z,28.60
2017-06-24T12:31:49.341Z,28.70
2017-06-24T12:37:24.093Z,29.00
2017-06-24T12:40:20.396Z,28.70
2017-06-24T12:42:49.470Z,28.20
2017-06-24T12:45:17.731Z,28.20
2017-06-24T12:47:45.962Z,28.30
2017-06-24T12:50:14.235Z,28.60
2017-06-24T12:55:43.287Z,28.50
2017-06-24T12:58:11.535Z,28.50
2017-06-24T13:00:39.845Z,28.60
2017-06-24T13:03:08.091Z,28.40
2017-06-24T13:05:36.315Z,28.60
2017-06-24T13:08:04.625Z,28.40
2017-06-24T13:10:32.859Z,29.00
2017-06-24T13:13:01.100Z,28.80
2017-06-24T13:21:30.250Z,28.90
2017-06-24T13:23:58.483Z,28.80
2017-06-24T13:26:26.775Z,29.00
2017-06-24T13:38:21.991Z,28.80
2017-06-24T13:41:00.736Z,28.80
2017-06-24T13:43:35.454Z,28.50
2017-06-24T13:52:21.215Z,28.90
2017-06-24T13:54:49.543Z,29.30
2017-06-24T13:57:18.548Z,30.10
2017-06-24T13:59:47.549Z,29.90
2017-06-24T14:02:15.847Z,29.90
2017-06-24T14:04:44.092Z,30.30
2017-06-24T14:10:21.223Z,29.90
2017-06-24T14:12:49.458Z,29.90
2017-06-24T14:15:23.673Z,31.30
2017-06-24T14:21:19.838Z,32.30
2017-06-24T14:27:01.870Z,32.00
2017-06-24T14:29:30.136Z,31.70
2017-06-24T14:31:58.406Z,31.10
2017-06-24T14:34:28.278Z,32.10
2017-06-24T14:36:56.566Z,32.10
2017-06-24T14:39:24.808Z,31.90
2017-06-24T14:48:00.300Z,32.80
2017-06-24T14:50:28.528Z,30.90
2017-06-24T14:52:56.752Z,30.60
2017-06-24T14:58:25.185Z,32.30
2017-06-24T15:00:53.549Z,31.50
2017-06-24T15:03:21.831Z,31.70
2017-06-24T15:05:50.083Z,31.60
2017-06-24T15:08:18.324Z,31.50
2017-06-24T15:25:59.755Z,30.30
2017-06-24T15:28:27.991Z,30.30
2017-06-24T15:30:56.218Z,31.20
2017-06-24T15:33:24.490Z,32.40
2017-06-24T15:35:52.763Z,31.30
2017-06-24T15:59:25.452Z,30.40
2017-06-24T16:01:53.702Z,30.40
2017-06-24T16:04:21.953Z,30.30
2017-06-24T16:09:51.367Z,32.30
2017-06-24T16:12:20.366Z,31.40
2017-06-24T16:14:48.598Z,31.30
2017-06-24T16:17:16.881Z,31.80
2017-06-24T16:31:47.986Z,32.10
2017-06-24T16:34:16.277Z,31.80
2017-06-24T16:43:05.648Z,31.80
2017-06-24T16:45:33.922Z,32.00
2017-06-24T16:48:02.151Z,31.90
2017-06-24T16:51:00.078Z,31.40
2017-06-24T17:53:15.757Z,31.30
2017-06-24T17:55:43.996Z,31.50
2017-06-24T18:31:17.426Z,29.80
2017-06-24T18:33:45.644Z,30.10
2017-06-24T18:42:38.131Z,29.90
2017-06-24T18:45:07.141Z,30.00
2017-06-24T19:02:52.027Z,28.90
2017-06-24T19:32:25.903Z,27.50
2017-06-24T19:50:07.836Z,26.60
2017-06-24T20:05:06.021Z,26.80
2017-06-24T20:16:36.129Z,28.00
2017-06-24T20:19:04.379Z,27.70
2017-06-24T20:21:59.792Z,27.60
2017-06-24T20:57:34.079Z,27.30
2017-06-24T21:00:02.296Z,27.30
2017-06-24T21:05:31.255Z,26.50
2017-06-24T21:07:59.484Z,25.00
2017-06-24T21:10:27.744Z,24.90
2017-06-24T21:12:57.185Z,24.80
2017-06-24T21:18:25.538Z,24.10
2017-06-24T21:20:53.781Z,24.10
2017-06-24T21:23:22.005Z,24.20
2017-06-24T21:25:51.205Z,23.80
2017-06-24T21:46:23.030Z,23.30
2017-06-24T21:48:51.264Z,24.10
2017-06-24T21:51:19.532Z,24.20
2017-06-24T21:53:47.796Z,23.90
2017-06-24T21:56:16.809Z,24.00
2017-06-24T21:58:45.049Z,24.00
2017-06-24T22:01:13.328Z,23.70
2017-06-24T22:03:41.574Z,23.00
2017-06-24T22:06:09.809Z,23.00
2017-06-24T22:08:38.106Z,22.80
2017-06-24T22:17:07.612Z,23.00
2017-06-24T22:19:36.634Z,23.00
2017-06-24T22:22:04.871Z,23.00
2017-06-24T22:24:33.953Z,24.00
2017-06-24T22:27:02.197Z,24.00
2017-06-24T22:29:30.471Z,23.90
2017-06-24T22:31:58.754Z,23.80
2017-06-24T22:34:26.998Z,23.50
2017-06-24T22:36:55.312Z,23.80
2017-06-24T22:42:24.191Z,23.90
2017-06-24T22:44:52.438Z,24.00
2017-06-24T22:47:21.443Z,24.00
2017-06-24T22:49:49.760Z,24.00
2017-06-24T23:01:20.395Z,23.80
2017-06-24T23:03:49.416Z,23.70
2017-06-24T23:12:18.744Z,23.20
2017-06-24T23:14:47.030Z,23.40
2017-06-24T23:17:15.275Z,23.20
2017-06-24T23:19:43.582Z,23.40
2017-06-24T23:52:17.732Z,23.30
2017-06-24T23:54:46.014Z,23.30
2017-06-24T23:57:14.271Z,23.30
2017-06-24T23:59:42.822Z,23.30
